sensor_id;sensor_type;location;lat;lon;timestamp;P1;durP1;ratioP1;P2;durP2;ratioP2
70426;SDS011;57872;55.432;37.248;2023-08-31T00:01:04;14.40;;;7.20;;
70426;SDS011;57872;55.432;37.248;2023-08-31T00:06:04;14.13;;;7.72;;
70426;SDS011;57872;55.432;37.248;2023-08-31T00:16:08;11.52;;;6.53;;
70426;SDS011;57872;55.432;37.248;2023-08-31T00:21:10;12.25;;;7.25;;
70426;SDS011;57872;55.432;37.248;2023-08-31T00:26:11;14.48;;;7.75;;
70426;SDS011;57872;55.432;37.248;2023-08-31T00:31:12;12.65;;;6.07;;
70426;SDS011;57872;55.432;37.248;2023-08-31T00:36:13;18.30;;;9.50;;
70426;SDS011;57872;55.432;37.248;2023-08-31T00:41:17;13.80;;;6.78;;
70426;SDS011;57872;55.432;37.248;2023-08-31T00:46:24;16.65;;;7.53;;
70426;SDS011;57872;55.432;37.248;2023-08-31T00:51:33;17.10;;;10.35;;
70426;SDS011;57872;55.432;37.248;2023-08-31T00:56:34;13.90;;;7.60;;
70426;SDS011;57872;55.432;37.248;2023-08-31T01:01:39;14.48;;;6.95;;
70426;SDS011;57872;55.432;37.248;2023-08-31T01:06:50;11.45;;;6.45;;
70426;SDS011;57872;55.432;37.248;2023-08-31T01:11:57;13.45;;;7.57;;
70426;SDS011;57872;55.432;37.248;2023-08-31T01:17:00;16.52;;;7.55;;
70426;SDS011;57872;55.432;37.248;2023-08-31T01:22:08;13.52;;;7.97;;
70426;SDS011;57872;55.432;37.248;2023-08-31T01:27:41;12.63;;;7.20;;
70426;SDS011;57872;55.432;37.248;2023-08-31T01:32:43;14.10;;;8.43;;
70426;SDS011;57872;55.432;37.248;2023-08-31T01:37:56;11.70;;;6.88;;
70426;SDS011;57872;55.432;37.248;2023-08-31T01:43:03;16.17;;;7.10;;
70426;SDS011;57872;55.432;37.248;2023-08-31T01:48:04;15.45;;;8.15;;
70426;SDS011;57872;55.432;37.248;2023-08-31T01:53:06;13.95;;;8.00;;
70426;SDS011;57872;55.432;37.248;2023-08-31T01:58:07;11.73;;;6.20;;
70426;SDS011;57872;55.432;37.248;2023-08-31T02:03:07;15.10;;;7.10;;
70426;SDS011;57872;55.432;37.248;2023-08-31T02:08:38;13.88;;;8.35;;
70426;SDS011;57872;55.432;37.248;2023-08-31T02:13:39;17.17;;;8.25;;
70426;SDS011;57872;55.432;37.248;2023-08-31T02:23:42;17.88;;;8.18;;
70426;SDS011;57872;55.432;37.248;2023-08-31T02:28:43;15.30;;;7.85;;
70426;SDS011;57872;55.432;37.248;2023-08-31T02:33:45;12.27;;;7.38;;
70426;SDS011;57872;55.432;37.248;2023-08-31T02:38:55;15.07;;;7.68;;
70426;SDS011;57872;55.432;37.248;2023-08-31T02:43:59;18.80;;;8.55;;
70426;SDS011;57872;55.432;37.248;2023-08-31T02:49:21;15.68;;;8.70;;
70426;SDS011;57872;55.432;37.248;2023-08-31T02:54:22;13.43;;;7.50;;
70426;SDS011;57872;55.432;37.248;2023-08-31T02:59:39;17.17;;;8.50;;
70426;SDS011;57872;55.432;37.248;2023-08-31T03:10:24;18.95;;;9.05;;
70426;SDS011;57872;55.432;37.248;2023-08-31T03:15:39;14.63;;;8.05;;
70426;SDS011;57872;55.432;37.248;2023-08-31T03:21:32;15.93;;;7.97;;
70426;SDS011;57872;55.432;37.248;2023-08-31T03:26:39;14.13;;;7.43;;
70426;SDS011;57872;55.432;37.248;2023-08-31T03:31:40;14.43;;;7.85;;
70426;SDS011;57872;55.432;37.248;2023-08-31T03:36:47;21.83;;;10.65;;
70426;SDS011;57872;55.432;37.248;2023-08-31T03:41:56;15.70;;;10.38;;
70426;SDS011;57872;55.432;37.248;2023-08-31T03:46:57;20.00;;;9.95;;
70426;SDS011;57872;55.432;37.248;2023-08-31T03:51:58;19.77;;;10.07;;
70426;SDS011;57872;55.432;37.248;2023-08-31T03:57:00;18.77;;;11.03;;
70426;SDS011;57872;55.432;37.248;2023-08-31T04:02:01;18.08;;;10.85;;
70426;SDS011;57872;55.432;37.248;2023-08-31T04:07:10;25.53;;;11.27;;
70426;SDS011;57872;55.432;37.248;2023-08-31T04:13:08;18.98;;;10.45;;
70426;SDS011;57872;55.432;37.248;2023-08-31T04:18:18;19.30;;;11.77;;
70426;SDS011;57872;55.432;37.248;2023-08-31T04:23:22;18.58;;;10.52;;
70426;SDS011;57872;55.432;37.248;2023-08-31T04:28:23;19.25;;;11.07;;
70426;SDS011;57872;55.432;37.248;2023-08-31T04:33:44;20.65;;;11.40;;
70426;SDS011;57872;55.432;37.248;2023-08-31T04:38:45;19.35;;;9.95;;
70426;SDS011;57872;55.432;37.248;2023-08-31T04:43:46;17.80;;;8.52;;
70426;SDS011;57872;55.432;37.248;2023-08-31T04:48:50;14.57;;;8.70;;
70426;SDS011;57872;55.432;37.248;2023-08-31T04:53:51;16.33;;;9.05;;
70426;SDS011;57872;55.432;37.248;2023-08-31T04:58:54;17.48;;;10.57;;
70426;SDS011;57872;55.432;37.248;2023-08-31T05:03:55;16.33;;;10.10;;
70426;SDS011;57872;55.432;37.248;2023-08-31T05:08:56;17.33;;;9.77;;
70426;SDS011;57872;55.432;37.248;2023-08-31T05:13:57;16.00;;;10.18;;
70426;SDS011;57872;55.432;37.248;2023-08-31T05:18:58;18.55;;;8.88;;
70426;SDS011;57872;55.432;37.248;2023-08-31T05:23:59;16.13;;;9.27;;
70426;SDS011;57872;55.432;37.248;2023-08-31T05:29:00;17.95;;;8.50;;
70426;SDS011;57872;55.432;37.248;2023-08-31T05:34:04;13.80;;;8.15;;
70426;SDS011;57872;55.432;37.248;2023-08-31T05:39:05;17.83;;;8.77;;
70426;SDS011;57872;55.432;37.248;2023-08-31T05:44:06;13.15;;;8.82;;
70426;SDS011;57872;55.432;37.248;2023-08-31T05:49:08;13.90;;;7.53;;
70426;SDS011;57872;55.432;37.248;2023-08-31T05:54:09;14.55;;;7.63;;
70426;SDS011;57872;55.432;37.248;2023-08-31T05:59:12;17.23;;;8.65;;
70426;SDS011;57872;55.432;37.248;2023-08-31T06:04:13;14.20;;;7.70;;
70426;SDS011;57872;55.432;37.248;2023-08-31T06:09:14;15.40;;;7.95;;
70426;SDS011;57872;55.432;37.248;2023-08-31T06:14:17;17.55;;;8.27;;
70426;SDS011;57872;55.432;37.248;2023-08-31T06:19:19;15.07;;;8.10;;
70426;SDS011;57872;55.432;37.248;2023-08-31T06:24:20;13.93;;;8.07;;
70426;SDS011;57872;55.432;37.248;2023-08-31T06:29:21;17.20;;;9.07;;
70426;SDS011;57872;55.432;37.248;2023-08-31T06:34:23;11.13;;;6.85;;
70426;SDS011;57872;55.432;37.248;2023-08-31T06:39:37;11.18;;;7.13;;
70426;SDS011;57872;55.432;37.248;2023-08-31T06:44:38;13.50;;;7.20;;
70426;SDS011;57872;55.432;37.248;2023-08-31T06:49:39;11.68;;;7.50;;
70426;SDS011;57872;55.432;37.248;2023-08-31T06:54:39;19.38;;;7.65;;
70426;SDS011;57872;55.432;37.248;2023-08-31T06:59:44;14.25;;;7.45;;
70426;SDS011;57872;55.432;37.248;2023-08-31T07:04:48;15.57;;;8.85;;
70426;SDS011;57872;55.432;37.248;2023-08-31T07:09:50;19.98;;;11.60;;
70426;SDS011;57872;55.432;37.248;2023-08-31T07:14:51;11.90;;;7.88;;
70426;SDS011;57872;55.432;37.248;2023-08-31T07:19:57;11.30;;;7.43;;
70426;SDS011;57872;55.432;37.248;2023-08-31T07:24:58;15.45;;;8.25;;
70426;SDS011;57872;55.432;37.248;2023-08-31T07:29:59;11.55;;;7.70;;
70426;SDS011;57872;55.432;37.248;2023-08-31T07:34:59;17.20;;;7.70;;
70426;SDS011;57872;55.432;37.248;2023-08-31T07:40:00;13.00;;;7.63;;
70426;SDS011;57872;55.432;37.248;2023-08-31T07:45:01;15.45;;;7.72;;
70426;SDS011;57872;55.432;37.248;2023-08-31T07:50:35;13.45;;;7.72;;
70426;SDS011;57872;55.432;37.248;2023-08-31T07:56:29;15.13;;;8.90;;
70426;SDS011;57872;55.432;37.248;2023-08-31T08:01:50;20.55;;;14.07;;
70426;SDS011;57872;55.432;37.248;2023-08-31T08:06:51;14.55;;;7.45;;
70426;SDS011;57872;55.432;37.248;2023-08-31T08:11:52;12.07;;;6.88;;
70426;SDS011;57872;55.432;37.248;2023-08-31T08:16:53;10.43;;;6.22;;
70426;SDS011;57872;55.432;37.248;2023-08-31T08:21:54;12.63;;;6.47;;
70426;SDS011;57872;55.432;37.248;2023-08-31T08:26:57;10.20;;;6.47;;
70426;SDS011;57872;55.432;37.248;2023-08-31T08:31:58;11.45;;;6.25;;
70426;SDS011;57872;55.432;37.248;2023-08-31T08:36:59;10.88;;;6.22;;
70426;SDS011;57872;55.432;37.248;2023-08-31T08:42:00;11.70;;;6.82;;
70426;SDS011;57872;55.432;37.248;2023-08-31T08:47:04;9.65;;;6.10;;
70426;SDS011;57872;55.432;37.248;2023-08-31T08:52:17;19.20;;;7.60;;
70426;SDS011;57872;55.432;37.248;2023-08-31T08:57:45;15.95;;;6.65;;
70426;SDS011;57872;55.432;37.248;2023-08-31T09:02:48;13.95;;;6.25;;
70426;SDS011;57872;55.432;37.248;2023-08-31T09:08:13;11.77;;;5.75;;
70426;SDS011;57872;55.432;37.248;2023-08-31T09:13:49;15.15;;;6.60;;
70426;SDS011;57872;55.432;37.248;2023-08-31T09:18:52;10.90;;;6.70;;
70426;SDS011;57872;55.432;37.248;2023-08-31T09:29:22;10.77;;;6.63;;
70426;SDS011;57872;55.432;37.248;2023-08-31T09:34:39;11.80;;;5.97;;
70426;SDS011;57872;55.432;37.248;2023-08-31T09:39:40;15.73;;;7.40;;
70426;SDS011;57872;55.432;37.248;2023-08-31T09:44:45;11.63;;;7.70;;
70426;SDS011;57872;55.432;37.248;2023-08-31T09:50:12;13.68;;;6.38;;
70426;SDS011;57872;55.432;37.248;2023-08-31T09:55:15;9.63;;;5.85;;
70426;SDS011;57872;55.432;37.248;2023-08-31T10:00:35;12.48;;;6.82;;
70426;SDS011;57872;55.432;37.248;2023-08-31T10:05:43;12.75;;;6.15;;
70426;SDS011;57872;55.432;37.248;2023-08-31T10:10:59;12.15;;;6.40;;
70426;SDS011;57872;55.432;37.248;2023-08-31T10:16:14;10.38;;;5.85;;
70426;SDS011;57872;55.432;37.248;2023-08-31T10:21:19;10.88;;;6.20;;
70426;SDS011;57872;55.432;37.248;2023-08-31T10:26:26;11.47;;;6.70;;
70426;SDS011;57872;55.432;37.248;2023-08-31T10:31:35;12.55;;;7.00;;
70426;SDS011;57872;55.432;37.248;2023-08-31T10:36:50;10.57;;;6.85;;
70426;SDS011;57872;55.432;37.248;2023-08-31T10:42:40;11.93;;;7.10;;
70426;SDS011;57872;55.432;37.248;2023-08-31T10:48:03;12.15;;;6.32;;
70426;SDS011;57872;55.432;37.248;2023-08-31T10:53:11;13.23;;;7.00;;
70426;SDS011;57872;55.432;37.248;2023-08-31T10:58:15;13.55;;;7.45;;
70426;SDS011;57872;55.432;37.248;2023-08-31T11:04:08;14.35;;;6.50;;
70426;SDS011;57872;55.432;37.248;2023-08-31T11:09:21;12.43;;;5.97;;
70426;SDS011;57872;55.432;37.248;2023-08-31T11:14:22;14.05;;;6.93;;
70426;SDS011;57872;55.432;37.248;2023-08-31T11:19:30;12.85;;;7.22;;
70426;SDS011;57872;55.432;37.248;2023-08-31T11:24:34;12.75;;;7.20;;
70426;SDS011;57872;55.432;37.248;2023-08-31T11:29:44;12.73;;;6.55;;
70426;SDS011;57872;55.432;37.248;2023-08-31T11:41:04;11.10;;;6.55;;
70426;SDS011;57872;55.432;37.248;2023-08-31T11:45:59;13.07;;;7.43;;
70426;SDS011;57872;55.432;37.248;2023-08-31T11:51:00;18.37;;;10.17;;
70426;SDS011;57872;55.432;37.248;2023-08-31T11:56:27;15.55;;;7.72;;
70426;SDS011;57872;55.432;37.248;2023-08-31T12:02:09;11.25;;;6.40;;
70426;SDS011;57872;55.432;37.248;2023-08-31T12:07:46;9.05;;;5.32;;
70426;SDS011;57872;55.432;37.248;2023-08-31T12:12:47;11.30;;;6.72;;
70426;SDS011;57872;55.432;37.248;2023-08-31T12:18:18;12.23;;;6.80;;
70426;SDS011;57872;55.432;37.248;2023-08-31T12:23:19;10.40;;;5.82;;
70426;SDS011;57872;55.432;37.248;2023-08-31T12:28:23;13.52;;;5.65;;
70426;SDS011;57872;55.432;37.248;2023-08-31T12:33:42;11.25;;;6.28;;
70426;SDS011;57872;55.432;37.248;2023-08-31T12:39:18;9.23;;;6.20;;
70426;SDS011;57872;55.432;37.248;2023-08-31T12:44:23;10.88;;;5.75;;
70426;SDS011;57872;55.432;37.248;2023-08-31T12:49:29;10.25;;;6.07;;
70426;SDS011;57872;55.432;37.248;2023-08-31T12:54:36;10.85;;;5.78;;
70426;SDS011;57872;55.432;37.248;2023-08-31T12:59:43;12.68;;;7.30;;
70426;SDS011;57872;55.432;37.248;2023-08-31T13:05:06;11.10;;;6.75;;
70426;SDS011;57872;55.432;37.248;2023-08-31T13:10:11;11.63;;;7.10;;
70426;SDS011;57872;55.432;37.248;2023-08-31T13:16:17;11.02;;;6.20;;
70426;SDS011;57872;55.432;37.248;2023-08-31T13:21:33;15.98;;;6.57;;
70426;SDS011;57872;55.432;37.248;2023-08-31T13:26:49;10.25;;;5.82;;
70426;SDS011;57872;55.432;37.248;2023-08-31T13:31:50;11.23;;;6.70;;
70426;SDS011;57872;55.432;37.248;2023-08-31T13:36:57;9.55;;;6.03;;
70426;SDS011;57872;55.432;37.248;2023-08-31T13:42:01;12.05;;;6.20;;
70426;SDS011;57872;55.432;37.248;2023-08-31T13:47:04;12.57;;;6.28;;
70426;SDS011;57872;55.432;37.248;2023-08-31T13:52:09;10.25;;;6.43;;
70426;SDS011;57872;55.432;37.248;2023-08-31T13:57:25;12.30;;;6.35;;
70426;SDS011;57872;55.432;37.248;2023-08-31T14:02:32;13.30;;;7.25;;
70426;SDS011;57872;55.432;37.248;2023-08-31T14:07:37;15.53;;;7.77;;
70426;SDS011;57872;55.432;37.248;2023-08-31T14:19:21;12.63;;;6.60;;
70426;SDS011;57872;55.432;37.248;2023-08-31T14:25:14;12.82;;;7.95;;
70426;SDS011;57872;55.432;37.248;2023-08-31T14:30:35;10.40;;;6.45;;
70426;SDS011;57872;55.432;37.248;2023-08-31T14:36:13;11.23;;;6.75;;
70426;SDS011;57872;55.432;37.248;2023-08-31T14:41:20;17.02;;;7.47;;
70426;SDS011;57872;55.432;37.248;2023-08-31T14:46:33;11.77;;;7.00;;
70426;SDS011;57872;55.432;37.248;2023-08-31T14:51:42;11.23;;;6.65;;
70426;SDS011;57872;55.432;37.248;2023-08-31T14:56:43;13.20;;;7.47;;
70426;SDS011;57872;55.432;37.248;2023-08-31T15:08:19;12.27;;;6.93;;
70426;SDS011;57872;55.432;37.248;2023-08-31T15:13:39;15.55;;;7.97;;
70426;SDS011;57872;55.432;37.248;2023-08-31T15:18:42;11.98;;;7.28;;
70426;SDS011;57872;55.432;37.248;2023-08-31T15:23:45;16.60;;;7.57;;
70426;SDS011;57872;55.432;37.248;2023-08-31T15:28:53;15.27;;;7.32;;
70426;SDS011;57872;55.432;37.248;2023-08-31T15:33:54;18.23;;;12.07;;
70426;SDS011;57872;55.432;37.248;2023-08-31T15:38:55;15.40;;;8.97;;
70426;SDS011;57872;55.432;37.248;2023-08-31T15:43:59;10.93;;;7.93;;
70426;SDS011;57872;55.432;37.248;2023-08-31T15:49:09;16.05;;;8.50;;
70426;SDS011;57872;55.432;37.248;2023-08-31T15:54:22;16.33;;;8.48;;
70426;SDS011;57872;55.432;37.248;2023-08-31T15:59:23;18.38;;;8.30;;
70426;SDS011;57872;55.432;37.248;2023-08-31T16:04:35;14.30;;;9.27;;
70426;SDS011;57872;55.432;37.248;2023-08-31T16:09:44;13.57;;;7.93;;
70426;SDS011;57872;55.432;37.248;2023-08-31T16:15:05;14.68;;;7.82;;
70426;SDS011;57872;55.432;37.248;2023-08-31T16:20:12;16.48;;;8.68;;
70426;SDS011;57872;55.432;37.248;2023-08-31T16:25:30;14.77;;;8.75;;
70426;SDS011;57872;55.432;37.248;2023-08-31T16:30:30;13.93;;;7.85;;
70426;SDS011;57872;55.432;37.248;2023-08-31T16:35:35;11.43;;;7.22;;
70426;SDS011;57872;55.432;37.248;2023-08-31T16:40:37;13.18;;;7.88;;
70426;SDS011;57872;55.432;37.248;2023-08-31T16:45:37;12.23;;;7.93;;
70426;SDS011;57872;55.432;37.248;2023-08-31T16:50:38;18.05;;;8.63;;
70426;SDS011;57872;55.432;37.248;2023-08-31T16:55:44;15.65;;;8.52;;
70426;SDS011;57872;55.432;37.248;2023-08-31T17:00:51;16.77;;;8.82;;
70426;SDS011;57872;55.432;37.248;2023-08-31T17:06:13;15.07;;;9.25;;
70426;SDS011;57872;55.432;37.248;2023-08-31T17:11:20;16.25;;;8.93;;
70426;SDS011;57872;55.432;37.248;2023-08-31T17:16:30;20.52;;;10.68;;
70426;SDS011;57872;55.432;37.248;2023-08-31T17:21:56;18.83;;;10.77;;
70426;SDS011;57872;55.432;37.248;2023-08-31T17:27:13;28.83;;;9.68;;
70426;SDS011;57872;55.432;37.248;2023-08-31T17:32:37;15.02;;;8.88;;
70426;SDS011;57872;55.432;37.248;2023-08-31T17:37:38;16.63;;;8.25;;
70426;SDS011;57872;55.432;37.248;2023-08-31T17:42:39;17.07;;;8.97;;
70426;SDS011;57872;55.432;37.248;2023-08-31T17:47:46;16.35;;;8.50;;
70426;SDS011;57872;55.432;37.248;2023-08-31T17:52:47;20.65;;;9.75;;
70426;SDS011;57872;55.432;37.248;2023-08-31T17:57:48;15.90;;;9.18;;
70426;SDS011;57872;55.432;37.248;2023-08-31T18:02:55;22.52;;;9.27;;
70426;SDS011;57872;55.432;37.248;2023-08-31T18:07:58;20.75;;;10.88;;
70426;SDS011;57872;55.432;37.248;2023-08-31T18:19:10;18.08;;;10.27;;
70426;SDS011;57872;55.432;37.248;2023-08-31T18:24:49;14.53;;;8.83;;
70426;SDS011;57872;55.432;37.248;2023-08-31T18:36:49;17.70;;;9.88;;
70426;SDS011;57872;55.432;37.248;2023-08-31T18:42:22;22.80;;;9.15;;
70426;SDS011;57872;55.432;37.248;2023-08-31T18:47:39;19.23;;;9.68;;
70426;SDS011;57872;55.432;37.248;2023-08-31T18:53:14;17.27;;;10.23;;
70426;SDS011;57872;55.432;37.248;2023-08-31T18:58:15;23.07;;;15.67;;
70426;SDS011;57872;55.432;37.248;2023-08-31T19:03:16;18.20;;;9.60;;
70426;SDS011;57872;55.432;37.248;2023-08-31T19:08:17;18.00;;;9.68;;
70426;SDS011;57872;55.432;37.248;2023-08-31T19:13:18;20.63;;;10.07;;
70426;SDS011;57872;55.432;37.248;2023-08-31T19:18:19;17.60;;;10.05;;
70426;SDS011;57872;55.432;37.248;2023-08-31T19:23:20;19.70;;;9.85;;
70426;SDS011;57872;55.432;37.248;2023-08-31T19:28:21;21.60;;;11.10;;
70426;SDS011;57872;55.432;37.248;2023-08-31T19:33:24;20.88;;;10.65;;
70426;SDS011;57872;55.432;37.248;2023-08-31T19:38:25;18.02;;;10.00;;
70426;SDS011;57872;55.432;37.248;2023-08-31T19:43:29;20.33;;;11.23;;
70426;SDS011;57872;55.432;37.248;2023-08-31T19:48:33;22.40;;;10.57;;
70426;SDS011;57872;55.432;37.248;2023-08-31T19:53:34;23.95;;;11.75;;
70426;SDS011;57872;55.432;37.248;2023-08-31T19:58:35;20.77;;;11.48;;
70426;SDS011;57872;55.432;37.248;2023-08-31T20:03:37;17.92;;;11.32;;
70426;SDS011;57872;55.432;37.248;2023-08-31T20:08:43;24.67;;;15.82;;
70426;SDS011;57872;55.432;37.248;2023-08-31T20:13:44;25.58;;;14.45;;
70426;SDS011;57872;55.432;37.248;2023-08-31T20:18:48;22.10;;;11.93;;
70426;SDS011;57872;55.432;37.248;2023-08-31T20:23:49;20.70;;;12.25;;
70426;SDS011;57872;55.432;37.248;2023-08-31T20:28:50;19.58;;;11.90;;
70426;SDS011;57872;55.432;37.248;2023-08-31T20:33:51;24.02;;;12.70;;
70426;SDS011;57872;55.432;37.248;2023-08-31T20:38:52;24.67;;;12.82;;
70426;SDS011;57872;55.432;37.248;2023-08-31T20:43:54;21.27;;;12.00;;
70426;SDS011;57872;55.432;37.248;2023-08-31T20:49:02;17.35;;;11.13;;
70426;SDS011;57872;55.432;37.248;2023-08-31T20:54:05;17.02;;;11.13;;
70426;SDS011;57872;55.432;37.248;2023-08-31T20:59:09;19.15;;;11.68;;
70426;SDS011;57872;55.432;37.248;2023-08-31T21:09:14;21.02;;;11.52;;
70426;SDS011;57872;55.432;37.248;2023-08-31T21:14:57;24.38;;;11.90;;
70426;SDS011;57872;55.432;37.248;2023-08-31T21:20:05;20.17;;;11.82;;
70426;SDS011;57872;55.432;37.248;2023-08-31T21:25:08;19.60;;;11.63;;
70426;SDS011;57872;55.432;37.248;2023-08-31T21:30:08;20.73;;;11.30;;
70426;SDS011;57872;55.432;37.248;2023-08-31T21:35:09;18.23;;;11.07;;
70426;SDS011;57872;55.432;37.248;2023-08-31T21:40:10;20.45;;;12.23;;
70426;SDS011;57872;55.432;37.248;2023-08-31T21:45:11;21.45;;;11.50;;
70426;SDS011;57872;55.432;37.248;2023-08-31T21:50:12;21.45;;;11.88;;
70426;SDS011;57872;55.432;37.248;2023-08-31T21:55:13;21.27;;;12.57;;
70426;SDS011;57872;55.432;37.248;2023-08-31T22:00:14;20.15;;;11.73;;
70426;SDS011;57872;55.432;37.248;2023-08-31T22:05:19;20.55;;;12.57;;
70426;SDS011;57872;55.432;37.248;2023-08-31T22:10:21;20.85;;;12.25;;
70426;SDS011;57872;55.432;37.248;2023-08-31T22:15:23;21.63;;;11.37;;
70426;SDS011;57872;55.432;37.248;2023-08-31T22:20:25;20.33;;;11.60;;
70426;SDS011;57872;55.432;37.248;2023-08-31T22:25:30;20.67;;;11.93;;
70426;SDS011;57872;55.432;37.248;2023-08-31T22:30:31;20.90;;;11.43;;
70426;SDS011;57872;55.432;37.248;2023-08-31T22:35:33;37.05;;;18.95;;
70426;SDS011;57872;55.432;37.248;2023-08-31T22:40:34;19.80;;;12.03;;
70426;SDS011;57872;55.432;37.248;2023-08-31T22:45:35;22.48;;;10.98;;
70426;SDS011;57872;55.432;37.248;2023-08-31T22:50:38;22.45;;;11.20;;
70426;SDS011;57872;55.432;37.248;2023-08-31T22:55:39;18.73;;;11.52;;
70426;SDS011;57872;55.432;37.248;2023-08-31T23:00:40;19.90;;;11.75;;
70426;SDS011;57872;55.432;37.248;2023-08-31T23:05:44;20.77;;;12.73;;
70426;SDS011;57872;55.432;37.248;2023-08-31T23:10:46;19.73;;;11.40;;
70426;SDS011;57872;55.432;37.248;2023-08-31T23:15:56;19.17;;;11.50;;
70426;SDS011;57872;55.432;37.248;2023-08-31T23:21:04;18.25;;;10.27;;
70426;SDS011;57872;55.432;37.248;2023-08-31T23:26:12;20.95;;;10.43;;
70426;SDS011;57872;55.432;37.248;2023-08-31T23:31:13;21.75;;;11.40;;
70426;SDS011;57872;55.432;37.248;2023-08-31T23:36:23;19.10;;;10.73;;
70426;SDS011;57872;55.432;37.248;2023-08-31T23:41:25;21.90;;;11.73;;
70426;SDS011;57872;55.432;37.248;2023-08-31T23:46:29;22.08;;;11.40;;
70426;SDS011;57872;55.432;37.248;2023-08-31T23:51:31;20.25;;;9.85;;
70426;SDS011;57872;55.432;37.248;2023-08-31T23:56:36;30.02;;;18.90;;
